sensor_id;sensor_type;location;lat;lon;timestamp;pressure;altitude;pressure_sealevel;temperature;humidity
71361;BME280;59166;48.908;1.870;2022-10-13T00:02:46;100819.63;;;13.19;79.79
71361;BME280;59166;48.908;1.870;2022-10-13T00:07:48;100798.72;;;13.14;79.68
71361;BME280;59166;48.908;1.870;2022-10-13T00:12:49;100781.91;;;13.12;80.27
71361;BME280;59166;48.908;1.870;2022-10-13T00:18:10;100767.78;;;13.10;80.05
71361;BME280;59166;48.908;1.870;2022-10-13T00:23:13;100766.69;;;13.11;80.03
71361;BME280;59166;48.908;1.870;2022-10-13T00:28:15;100774.00;;;13.11;80.33
71361;BME280;59166;48.908;1.870;2022-10-13T00:33:17;100776.47;;;13.12;80.60
71361;BME280;59166;48.908;1.870;2022-10-13T00:38:39;100794.38;;;13.13;81.07
71361;BME280;59166;48.908;1.870;2022-10-13T00:43:55;100793.56;;;13.13;81.09
71361;BME280;59166;48.908;1.870;2022-10-13T00:48:58;100793.03;;;13.16;80.66
71361;BME280;59166;48.908;1.870;2022-10-13T00:54:03;100812.56;;;13.18;80.86
71361;BME280;59166;48.908;1.870;2022-10-13T00:59:10;100798.22;;;13.22;80.82
71361;BME280;59166;48.908;1.870;2022-10-13T01:04:13;100783.00;;;13.16;81.32
71361;BME280;59166;48.908;1.870;2022-10-13T01:09:16;100777.56;;;13.16;82.01
71361;BME280;59166;48.908;1.870;2022-10-13T01:14:20;100775.94;;;13.15;81.76
71361;BME280;59166;48.908;1.870;2022-10-13T01:19:51;100781.91;;;13.12;82.19
71361;BME280;59166;48.908;1.870;2022-10-13T01:25:25;100757.22;;;13.14;82.50
71361;BME280;59166;48.908;1.870;2022-10-13T01:30:33;100765.91;;;13.16;82.84
71361;BME280;59166;48.908;1.870;2022-10-13T01:36:03;100768.38;;;13.27;82.26
71361;BME280;59166;48.908;1.870;2022-10-13T01:46:29;100768.34;;;13.17;82.96
71361;BME280;59166;48.908;1.870;2022-10-13T01:51:32;100758.31;;;13.18;83.48
71361;BME280;59166;48.908;1.870;2022-10-13T01:56:33;100760.75;;;13.19;83.59
71361;BME280;59166;48.908;1.870;2022-10-13T02:01:47;100745.03;;;13.16;83.94
71361;BME280;59166;48.908;1.870;2022-10-13T02:07:27;100714.34;;;13.11;84.85
71361;BME280;59166;48.908;1.870;2022-10-13T02:12:49;100728.72;;;13.11;84.79
71361;BME280;59166;48.908;1.870;2022-10-13T02:17:54;100721.94;;;13.09;85.42
71361;BME280;59166;48.908;1.870;2022-10-13T02:22:59;100710.84;;;13.10;85.63
71361;BME280;59166;48.908;1.870;2022-10-13T02:28:01;100685.84;;;13.08;85.99
71361;BME280;59166;48.908;1.870;2022-10-13T02:33:03;100692.63;;;13.11;86.42
71361;BME280;59166;48.908;1.870;2022-10-13T02:38:05;100698.06;;;13.11;86.81
71361;BME280;59166;48.908;1.870;2022-10-13T02:43:06;100701.59;;;13.11;86.77
71361;BME280;59166;48.908;1.870;2022-10-13T02:48:09;100703.47;;;13.11;86.96
71361;BME280;59166;48.908;1.870;2022-10-13T02:53:10;100684.50;;;13.11;87.47
71361;BME280;59166;48.908;1.870;2022-10-13T02:58:10;100688.56;;;13.08;88.31
71361;BME280;59166;48.908;1.870;2022-10-13T03:03:13;100672.03;;;13.10;88.57
71361;BME280;59166;48.908;1.870;2022-10-13T03:08:14;100666.06;;;13.13;88.67
71361;BME280;59166;48.908;1.870;2022-10-13T03:13:15;100659.56;;;13.14;88.51
71361;BME280;59166;48.908;1.870;2022-10-13T03:18:17;100665.25;;;13.17;88.49
71361;BME280;59166;48.908;1.870;2022-10-13T03:23:18;100650.63;;;13.18;88.32
71361;BME280;59166;48.908;1.870;2022-10-13T03:28:19;100642.19;;;13.15;88.69
71361;BME280;59166;48.908;1.870;2022-10-13T03:33:25;100645.16;;;13.08;89.25
71361;BME280;59166;48.908;1.870;2022-10-13T03:38:26;100647.09;;;13.13;88.91
71361;BME280;59166;48.908;1.870;2022-10-13T03:43:27;100634.31;;;13.08;89.26
71361;BME280;59166;48.908;1.870;2022-10-13T03:48:30;100619.13;;;13.02;89.53
71361;BME280;59166;48.908;1.870;2022-10-13T03:53:31;100629.44;;;13.05;89.61
71361;BME280;59166;48.908;1.870;2022-10-13T03:58:33;100632.16;;;13.05;89.75
71361;BME280;59166;48.908;1.870;2022-10-13T04:03:35;100630.78;;;13.03;89.77
71361;BME280;59166;48.908;1.870;2022-10-13T04:08:36;100628.88;;;12.98;90.18
71361;BME280;59166;48.908;1.870;2022-10-13T04:13:37;100648.69;;;12.99;90.10
71361;BME280;59166;48.908;1.870;2022-10-13T04:18:40;100647.59;;;13.00;90.09
71361;BME280;59166;48.908;1.870;2022-10-13T04:23:41;100648.44;;;13.00;89.66
71361;BME280;59166;48.908;1.870;2022-10-13T04:28:42;100645.16;;;12.98;90.01
71361;BME280;59166;48.908;1.870;2022-10-13T04:33:44;100645.44;;;12.97;89.70
71361;BME280;59166;48.908;1.870;2022-10-13T04:38:46;100628.06;;;12.93;90.04
71361;BME280;59166;48.908;1.870;2022-10-13T04:43:47;100625.59;;;12.86;91.04
71361;BME280;59166;48.908;1.870;2022-10-13T04:48:50;100629.69;;;12.88;91.12
71361;BME280;59166;48.908;1.870;2022-10-13T04:53:53;100629.41;;;12.90;91.34
71361;BME280;59166;48.908;1.870;2022-10-13T04:58:54;100624.25;;;12.88;91.44
71361;BME280;59166;48.908;1.870;2022-10-13T05:03:59;100620.72;;;12.88;91.66
71361;BME280;59166;48.908;1.870;2022-10-13T05:09:00;100625.88;;;12.89;91.82
71361;BME280;59166;48.908;1.870;2022-10-13T05:14:01;100619.09;;;12.87;91.96
71361;BME280;59166;48.908;1.870;2022-10-13T05:19:03;100606.91;;;12.89;92.05
71361;BME280;59166;48.908;1.870;2022-10-13T05:24:05;100592.53;;;12.89;92.43
71361;BME280;59166;48.908;1.870;2022-10-13T05:29:06;100588.75;;;12.90;92.60
71361;BME280;59166;48.908;1.870;2022-10-13T05:34:09;100599.31;;;12.86;92.91
71361;BME280;59166;48.908;1.870;2022-10-13T05:39:13;100621.78;;;12.87;92.59
71361;BME280;59166;48.908;1.870;2022-10-13T05:44:14;100619.91;;;12.98;92.30
71361;BME280;59166;48.908;1.870;2022-10-13T05:49:16;100605.84;;;12.96;92.15
71361;BME280;59166;48.908;1.870;2022-10-13T05:54:23;100601.75;;;12.98;91.93
71361;BME280;59166;48.908;1.870;2022-10-13T05:59:28;100609.91;;;13.03;91.51
71361;BME280;59166;48.908;1.870;2022-10-13T06:04:34;100589.28;;;12.97;91.91
71361;BME280;59166;48.908;1.870;2022-10-13T06:09:37;100596.84;;;12.85;92.39
71361;BME280;59166;48.908;1.870;2022-10-13T06:14:38;100583.03;;;12.86;91.68
71361;BME280;59166;48.908;1.870;2022-10-13T06:19:40;100570.56;;;12.90;91.10
71361;BME280;59166;48.908;1.870;2022-10-13T06:24:41;100585.78;;;12.97;90.48
71361;BME280;59166;48.908;1.870;2022-10-13T06:29:42;100582.78;;;12.98;90.44
71361;BME280;59166;48.908;1.870;2022-10-13T06:34:45;100600.69;;;12.99;90.51
71361;BME280;59166;48.908;1.870;2022-10-13T06:39:46;100603.94;;;12.96;91.07
71361;BME280;59166;48.908;1.870;2022-10-13T06:44:46;100609.63;;;12.95;91.26
71361;BME280;59166;48.908;1.870;2022-10-13T06:49:49;100616.38;;;12.97;91.47
71361;BME280;59166;48.908;1.870;2022-10-13T06:54:50;100605.81;;;12.90;92.19
71361;BME280;59166;48.908;1.870;2022-10-13T06:59:50;100605.81;;;12.90;92.51
71361;BME280;59166;48.908;1.870;2022-10-13T07:04:53;100611.75;;;12.87;92.84
71361;BME280;59166;48.908;1.870;2022-10-13T07:09:54;100612.88;;;12.92;92.15
71361;BME280;59166;48.908;1.870;2022-10-13T07:14:55;100625.34;;;12.93;92.02
71361;BME280;59166;48.908;1.870;2022-10-13T07:19:57;100617.75;;;12.95;91.98
71361;BME280;59166;48.908;1.870;2022-10-13T07:24:58;100616.94;;;12.94;92.10
71361;BME280;59166;48.908;1.870;2022-10-13T07:29:59;100633.75;;;13.01;92.01
71361;BME280;59166;48.908;1.870;2022-10-13T07:35:01;100629.97;;;13.02;91.73
71361;BME280;59166;48.908;1.870;2022-10-13T07:40:04;100621.56;;;13.04;91.10
71361;BME280;59166;48.908;1.870;2022-10-13T07:45:06;100623.22;;;13.10;90.42
71361;BME280;59166;48.908;1.870;2022-10-13T07:50:09;100635.16;;;13.14;90.42
71361;BME280;59166;48.908;1.870;2022-10-13T07:55:09;100640.59;;;13.19;89.34
71361;BME280;59166;48.908;1.870;2022-10-13T08:00:11;100653.31;;;13.18;89.19
71361;BME280;59166;48.908;1.870;2022-10-13T08:05:13;100643.56;;;13.22;89.85
71361;BME280;59166;48.908;1.870;2022-10-13T08:10:14;100652.81;;;13.36;89.65
71361;BME280;59166;48.908;1.870;2022-10-13T08:15:15;100654.69;;;13.41;87.54
71361;BME280;59166;48.908;1.870;2022-10-13T08:20:18;100650.38;;;13.55;86.39
71361;BME280;59166;48.908;1.870;2022-10-13T08:25:18;100640.66;;;13.74;86.47
71361;BME280;59166;48.908;1.870;2022-10-13T08:30:19;100658.81;;;13.89;85.72
71361;BME280;59166;48.908;1.870;2022-10-13T08:35:22;100659.03;;;14.18;85.01
71361;BME280;59166;48.908;1.870;2022-10-13T08:40:23;100657.66;;;14.30;83.59
71361;BME280;59166;48.908;1.870;2022-10-13T08:45:26;100660.63;;;14.29;83.53
71361;BME280;59166;48.908;1.870;2022-10-13T08:50:31;100647.34;;;14.27;86.02
71361;BME280;59166;48.908;1.870;2022-10-13T08:55:38;100653.31;;;14.24;84.93
71361;BME280;59166;48.908;1.870;2022-10-13T09:00:41;100642.72;;;14.28;84.98
71361;BME280;59166;48.908;1.870;2022-10-13T09:05:52;100641.09;;;14.17;86.26
71361;BME280;59166;48.908;1.870;2022-10-13T09:10:58;100643.84;;;14.12;87.50
71361;BME280;59166;48.908;1.870;2022-10-13T09:15:59;100631.91;;;14.08;89.41
71361;BME280;59166;48.908;1.870;2022-10-13T09:21:16;100625.34;;;14.14;90.03
71361;BME280;59166;48.908;1.870;2022-10-13T09:26:21;100620.72;;;14.24;90.57
71361;BME280;59166;48.908;1.870;2022-10-13T09:31:24;100619.84;;;14.34;89.86
71361;BME280;59166;48.908;1.870;2022-10-13T09:36:28;100616.28;;;14.43;89.47
71361;BME280;59166;48.908;1.870;2022-10-13T09:41:29;100609.16;;;14.53;89.34
71361;BME280;59166;48.908;1.870;2022-10-13T09:46:32;100618.34;;;14.67;88.91
71361;BME280;59166;48.908;1.870;2022-10-13T09:51:39;100609.63;;;14.70;89.33
71361;BME280;59166;48.908;1.870;2022-10-13T09:56:47;100618.88;;;14.74;89.32
71361;BME280;59166;48.908;1.870;2022-10-13T10:01:52;100626.50;;;14.72;87.45
71361;BME280;59166;48.908;1.870;2022-10-13T10:06:56;100622.19;;;14.66;88.35
71361;BME280;59166;48.908;1.870;2022-10-13T10:11:58;100612.66;;;14.68;87.48
71361;BME280;59166;48.908;1.870;2022-10-13T10:17:06;100612.91;;;14.67;88.07
71361;BME280;59166;48.908;1.870;2022-10-13T10:22:19;100607.97;;;14.79;88.15
71361;BME280;59166;48.908;1.870;2022-10-13T10:27:27;100599.81;;;14.79;88.32
71361;BME280;59166;48.908;1.870;2022-10-13T10:32:39;100604.97;;;14.80;87.96
71361;BME280;59166;48.908;1.870;2022-10-13T10:37:58;100599.78;;;14.84;88.48
71361;BME280;59166;48.908;1.870;2022-10-13T10:43:29;100595.66;;;14.86;89.06
71361;BME280;59166;48.908;1.870;2022-10-13T10:48:36;100600.31;;;14.86;88.60
71361;BME280;59166;48.908;1.870;2022-10-13T10:53:48;100600.59;;;14.79;88.60
71361;BME280;59166;48.908;1.870;2022-10-13T10:59:01;100598.75;;;14.75;90.20
71361;BME280;59166;48.908;1.870;2022-10-13T11:04:33;100595.28;;;14.59;92.78
71361;BME280;59166;48.908;1.870;2022-10-13T11:15:23;100591.88;;;14.33;96.84
71361;BME280;59166;48.908;1.870;2022-10-13T11:20:56;100584.78;;;14.32;97.93
71361;BME280;59166;48.908;1.870;2022-10-13T11:31:51;100585.31;;;14.39;99.74
71361;BME280;59166;48.908;1.870;2022-10-13T11:36:57;100586.38;;;14.43;100.00
71361;BME280;59166;48.908;1.870;2022-10-13T11:42:11;100573.06;;;14.47;100.00
71361;BME280;59166;48.908;1.870;2022-10-13T11:47:24;100564.06;;;14.52;100.00
71361;BME280;59166;48.908;1.870;2022-10-13T11:58:11;100547.75;;;14.52;100.00
71361;BME280;59166;48.908;1.870;2022-10-13T12:03:21;100530.31;;;14.58;100.00
71361;BME280;59166;48.908;1.870;2022-10-13T12:08:24;100526.50;;;14.59;100.00
71361;BME280;59166;48.908;1.870;2022-10-13T12:13:28;100532.66;;;14.74;100.00
71361;BME280;59166;48.908;1.870;2022-10-13T12:18:33;100526.72;;;14.67;100.00
71361;BME280;59166;48.908;1.870;2022-10-13T12:23:35;100536.81;;;14.62;100.00
71361;BME280;59166;48.908;1.870;2022-10-13T12:28:47;100526.53;;;14.54;100.00
71361;BME280;59166;48.908;1.870;2022-10-13T12:33:54;100522.22;;;14.48;100.00
71361;BME280;59166;48.908;1.870;2022-10-13T12:38:58;100523.31;;;14.47;100.00
71361;BME280;59166;48.908;1.870;2022-10-13T12:43:59;100519.78;;;14.46;100.00
71361;BME280;59166;48.908;1.870;2022-10-13T12:49:05;100516.22;;;14.51;100.00
71361;BME280;59166;48.908;1.870;2022-10-13T12:54:07;100518.66;;;14.52;100.00
71361;BME280;59166;48.908;1.870;2022-10-13T12:59:24;100514.06;;;14.48;100.00
71361;BME280;59166;48.908;1.870;2022-10-13T13:04:47;100507.28;;;14.45;100.00
71361;BME280;59166;48.908;1.870;2022-10-13T13:09:59;100500.44;;;14.53;100.00
71361;BME280;59166;48.908;1.870;2022-10-13T13:15:32;100490.34;;;14.58;100.00
71361;BME280;59166;48.908;1.870;2022-10-13T13:20:35;100497.41;;;14.59;100.00
71361;BME280;59166;48.908;1.870;2022-10-13T13:25:36;100491.41;;;14.62;100.00
71361;BME280;59166;48.908;1.870;2022-10-13T13:30:39;100486.78;;;14.63;100.00
71361;BME280;59166;48.908;1.870;2022-10-13T13:36:02;100478.84;;;14.66;100.00
71361;BME280;59166;48.908;1.870;2022-10-13T13:41:03;100477.50;;;14.69;100.00
71361;BME280;59166;48.908;1.870;2022-10-13T13:46:05;100482.06;;;14.73;100.00
71361;BME280;59166;48.908;1.870;2022-10-13T13:51:08;100482.13;;;14.68;100.00
71361;BME280;59166;48.908;1.870;2022-10-13T13:56:11;100481.88;;;14.65;100.00
71361;BME280;59166;48.908;1.870;2022-10-13T14:01:13;100469.34;;;14.69;100.00
71361;BME280;59166;48.908;1.870;2022-10-13T14:06:19;100464.19;;;14.67;100.00
71361;BME280;59166;48.908;1.870;2022-10-13T14:11:20;100458.22;;;14.65;100.00
71361;BME280;59166;48.908;1.870;2022-10-13T14:16:21;100450.00;;;14.70;100.00
71361;BME280;59166;48.908;1.870;2022-10-13T14:21:23;100452.97;;;14.74;100.00
71361;BME280;59166;48.908;1.870;2022-10-13T14:26:24;100454.63;;;14.70;100.00
71361;BME280;59166;48.908;1.870;2022-10-13T14:31:25;100453.03;;;14.69;100.00
71361;BME280;59166;48.908;1.870;2022-10-13T14:36:27;100441.59;;;14.67;100.00
71361;BME280;59166;48.908;1.870;2022-10-13T14:41:28;100443.03;;;14.59;100.00
71361;BME280;59166;48.908;1.870;2022-10-13T14:46:30;100431.06;;;14.60;100.00
71361;BME280;59166;48.908;1.870;2022-10-13T14:51:33;100435.91;;;14.68;100.00
71361;BME280;59166;48.908;1.870;2022-10-13T14:56:34;100425.59;;;14.65;100.00
71361;BME280;59166;48.908;1.870;2022-10-13T15:01:36;100429.16;;;14.61;100.00
71361;BME280;59166;48.908;1.870;2022-10-13T15:06:38;100426.75;;;14.54;100.00
71361;BME280;59166;48.908;1.870;2022-10-13T15:11:43;100416.13;;;14.58;100.00
71361;BME280;59166;48.908;1.870;2022-10-13T15:16:43;100417.47;;;14.60;100.00
71361;BME280;59166;48.908;1.870;2022-10-13T15:21:46;100413.75;;;14.51;100.00
71361;BME280;59166;48.908;1.870;2022-10-13T15:26:47;100414.56;;;14.52;100.00
71361;BME280;59166;48.908;1.870;2022-10-13T15:31:48;100407.25;;;14.47;100.00
71361;BME280;59166;48.908;1.870;2022-10-13T15:36:50;100402.31;;;14.49;100.00
71361;BME280;59166;48.908;1.870;2022-10-13T15:41:51;100405.53;;;14.56;100.00
71361;BME280;59166;48.908;1.870;2022-10-13T15:46:53;100405.50;;;14.61;100.00
71361;BME280;59166;48.908;1.870;2022-10-13T15:51:56;100401.88;;;14.71;100.00
71361;BME280;59166;48.908;1.870;2022-10-13T15:56:57;100387.44;;;14.75;100.00
71361;BME280;59166;48.908;1.870;2022-10-13T16:01:58;100380.38;;;14.74;100.00
71361;BME280;59166;48.908;1.870;2022-10-13T16:07:01;100379.06;;;14.67;100.00
71361;BME280;59166;48.908;1.870;2022-10-13T16:12:02;100386.72;;;14.65;100.00
71361;BME280;59166;48.908;1.870;2022-10-13T16:17:03;100376.94;;;14.64;100.00
71361;BME280;59166;48.908;1.870;2022-10-13T16:22:06;100371.53;;;14.59;100.00
71361;BME280;59166;48.908;1.870;2022-10-13T16:27:07;100360.44;;;14.55;100.00
71361;BME280;59166;48.908;1.870;2022-10-13T16:32:09;100356.59;;;14.56;100.00
71361;BME280;59166;48.908;1.870;2022-10-13T16:37:12;100359.63;;;14.55;100.00
71361;BME280;59166;48.908;1.870;2022-10-13T16:42:13;100358.56;;;14.51;100.00
71361;BME280;59166;48.908;1.870;2022-10-13T16:47:14;100356.09;;;14.49;100.00
71361;BME280;59166;48.908;1.870;2022-10-13T16:52:17;100364.50;;;14.53;100.00
71361;BME280;59166;48.908;1.870;2022-10-13T16:57:18;100363.75;;;14.47;100.00
71361;BME280;59166;48.908;1.870;2022-10-13T17:02:20;100375.75;;;14.41;100.00
71361;BME280;59166;48.908;1.870;2022-10-13T17:07:23;100374.94;;;14.40;100.00
71361;BME280;59166;48.908;1.870;2022-10-13T17:12:24;100377.66;;;14.40;100.00
71361;BME280;59166;48.908;1.870;2022-10-13T17:17:26;100367.03;;;14.44;100.00
71361;BME280;59166;48.908;1.870;2022-10-13T17:22:28;100379.28;;;14.41;100.00
71361;BME280;59166;48.908;1.870;2022-10-13T17:27:29;100371.16;;;14.41;100.00
71361;BME280;59166;48.908;1.870;2022-10-13T17:32:30;100372.75;;;14.42;100.00
71361;BME280;59166;48.908;1.870;2022-10-13T17:37:33;100384.97;;;14.45;100.00
71361;BME280;59166;48.908;1.870;2022-10-13T17:42:33;100387.97;;;14.43;100.00
71361;BME280;59166;48.908;1.870;2022-10-13T17:47:34;100383.09;;;14.40;100.00
71361;BME280;59166;48.908;1.870;2022-10-13T17:52:36;100374.38;;;14.43;100.00
71361;BME280;59166;48.908;1.870;2022-10-13T17:57:37;100373.56;;;14.43;100.00
71361;BME280;59166;48.908;1.870;2022-10-13T18:02:38;100378.72;;;14.45;100.00
71361;BME280;59166;48.908;1.870;2022-10-13T18:07:41;100373.00;;;14.46;100.00
71361;BME280;59166;48.908;1.870;2022-10-13T18:12:42;100383.84;;;14.51;100.00
71361;BME280;59166;48.908;1.870;2022-10-13T18:17:43;100380.03;;;14.52;100.00
71361;BME280;59166;48.908;1.870;2022-10-13T18:22:45;100380.53;;;14.54;100.00
71361;BME280;59166;48.908;1.870;2022-10-13T18:27:46;100384.34;;;14.53;100.00
71361;BME280;59166;48.908;1.870;2022-10-13T18:32:47;100380.53;;;14.54;100.00
71361;BME280;59166;48.908;1.870;2022-10-13T18:37:50;100365.06;;;14.55;100.00
71361;BME280;59166;48.908;1.870;2022-10-13T18:42:51;100366.91;;;14.59;100.00
71361;BME280;59166;48.908;1.870;2022-10-13T18:47:52;100365.00;;;14.60;100.00
71361;BME280;59166;48.908;1.870;2022-10-13T18:52:54;100364.19;;;14.59;100.00
71361;BME280;59166;48.908;1.870;2022-10-13T18:57:55;100370.16;;;14.61;100.00
71361;BME280;59166;48.908;1.870;2022-10-13T19:02:56;100370.44;;;14.60;100.00
71361;BME280;59166;48.908;1.870;2022-10-13T19:07:59;100369.84;;;14.63;100.00
71361;BME280;59166;48.908;1.870;2022-10-13T19:13:00;100367.69;;;14.65;100.00
71361;BME280;59166;48.908;1.870;2022-10-13T19:18:01;100373.13;;;14.65;100.00
71361;BME280;59166;48.908;1.870;2022-10-13T19:23:04;100369.59;;;14.64;100.00
71361;BME280;59166;48.908;1.870;2022-10-13T19:28:05;100366.34;;;14.62;100.00
71361;BME280;59166;48.908;1.870;2022-10-13T19:33:11;100364.97;;;14.65;100.00
71361;BME280;59166;48.908;1.870;2022-10-13T19:38:17;100363.34;;;14.64;100.00
71361;BME280;59166;48.908;1.870;2022-10-13T19:43:19;100360.63;;;14.64;100.00
71361;BME280;59166;48.908;1.870;2022-10-13T19:48:20;100362.00;;;14.61;100.00
71361;BME280;59166;48.908;1.870;2022-10-13T19:53:23;100361.19;;;14.61;100.00
71361;BME280;59166;48.908;1.870;2022-10-13T19:58:24;100361.69;;;14.63;100.00
71361;BME280;59166;48.908;1.870;2022-10-13T20:03:27;100352.22;;;14.60;100.00
71361;BME280;59166;48.908;1.870;2022-10-13T20:08:33;100349.22;;;14.62;100.00
71361;BME280;59166;48.908;1.870;2022-10-13T20:13:35;100342.41;;;14.64;100.00
71361;BME280;59166;48.908;1.870;2022-10-13T20:18:36;100342.66;;;14.63;100.00
71361;BME280;59166;48.908;1.870;2022-10-13T20:23:38;100348.66;;;14.65;100.00
71361;BME280;59166;48.908;1.870;2022-10-13T20:28:59;100343.22;;;14.65;100.00
71361;BME280;59166;48.908;1.870;2022-10-13T20:34:00;100341.59;;;14.64;100.00
71361;BME280;59166;48.908;1.870;2022-10-13T20:39:03;100326.09;;;14.64;100.00
71361;BME280;59166;48.908;1.870;2022-10-13T20:44:04;100327.41;;;14.67;100.00
71361;BME280;59166;48.908;1.870;2022-10-13T20:49:05;100324.69;;;14.67;100.00
71361;BME280;59166;48.908;1.870;2022-10-13T20:54:08;100320.06;;;14.67;100.00
71361;BME280;59166;48.908;1.870;2022-10-13T20:59:10;100322.78;;;14.67;100.00
71361;BME280;59166;48.908;1.870;2022-10-13T21:04:12;100320.88;;;14.68;100.00
71361;BME280;59166;48.908;1.870;2022-10-13T21:09:14;100320.06;;;14.67;100.00
71361;BME280;59166;48.908;1.870;2022-10-13T21:14:15;100310.81;;;14.68;100.00
71361;BME280;59166;48.908;1.870;2022-10-13T21:19:15;100315.69;;;14.71;100.00
71361;BME280;59166;48.908;1.870;2022-10-13T21:24:18;100321.38;;;14.75;100.00
71361;BME280;59166;48.908;1.870;2022-10-13T21:29:18;100317.81;;;14.74;100.00
71361;BME280;59166;48.908;1.870;2022-10-13T21:34:19;100316.16;;;14.78;100.00
71361;BME280;59166;48.908;1.870;2022-10-13T21:39:22;100307.75;;;14.75;100.00
71361;BME280;59166;48.908;1.870;2022-10-13T21:44:23;100309.44;;;14.71;100.00
71361;BME280;59166;48.908;1.870;2022-10-13T21:49:24;100305.28;;;14.78;100.00
71361;BME280;59166;48.908;1.870;2022-10-13T21:54:26;100311.53;;;14.79;100.00
71361;BME280;59166;48.908;1.870;2022-10-13T21:59:27;100310.13;;;14.81;100.00
71361;BME280;59166;48.908;1.870;2022-10-13T22:04:28;100308.28;;;14.77;100.00
71361;BME280;59166;48.908;1.870;2022-10-13T22:09:30;100306.69;;;14.76;100.00
71361;BME280;59166;48.908;1.870;2022-10-13T22:14:31;100299.03;;;14.78;100.00
71361;BME280;59166;48.908;1.870;2022-10-13T22:19:32;100294.91;;;14.80;100.00
71361;BME280;59166;48.908;1.870;2022-10-13T22:24:34;100295.78;;;14.76;100.00
71361;BME280;59166;48.908;1.870;2022-10-13T22:29:35;100294.41;;;14.78;100.00
71361;BME280;59166;48.908;1.870;2022-10-13T22:34:36;100291.38;;;14.80;100.00
71361;BME280;59166;48.908;1.870;2022-10-13T22:39:38;100288.97;;;14.78;100.00
71361;BME280;59166;48.908;1.870;2022-10-13T22:44:39;100274.25;;;14.79;100.00
71361;BME280;59166;48.908;1.870;2022-10-13T22:49:40;100267.47;;;14.77;100.00
71361;BME280;59166;48.908;1.870;2022-10-13T22:54:42;100252.28;;;14.76;100.00
71361;BME280;59166;48.908;1.870;2022-10-13T22:59:43;100251.47;;;14.75;100.00
71361;BME280;59166;48.908;1.870;2022-10-13T23:04:44;100255.88;;;14.71;100.00
71361;BME280;59166;48.908;1.870;2022-10-13T23:09:49;100258.28;;;14.73;100.00
71361;BME280;59166;48.908;1.870;2022-10-13T23:14:50;100265.88;;;14.76;100.00
71361;BME280;59166;48.908;1.870;2022-10-13T23:19:51;100263.94;;;14.76;100.00
71361;BME280;59166;48.908;1.870;2022-10-13T23:24:53;100264.25;;;14.75;100.00
71361;BME280;59166;48.908;1.870;2022-10-13T23:29:54;100265.34;;;14.74;100.00
71361;BME280;59166;48.908;1.870;2022-10-13T23:34:55;100253.38;;;14.75;100.00
71361;BME280;59166;48.908;1.870;2022-10-13T23:39:57;100255.78;;;14.76;100.00
71361;BME280;59166;48.908;1.870;2022-10-13T23:44:58;100246.31;;;14.74;100.00
71361;BME280;59166;48.908;1.870;2022-10-13T23:49:59;100236.75;;;14.76;100.00
71361;BME280;59166;48.908;1.870;2022-10-13T23:55:02;100235.66;;;14.77;100.00
